Terminal Aerodrome Forecast
Issued by NWS

Home | Current Version | Previous Version | Text Only | Print | Product List | Glossary On
Versions: 1 2 3 4 5 6 7 8 9 10 11 12 13 14 15 16 17 18 19 20
000
FTUS44 KOHX 051525 AAB
TAFCKV
TAF AMD
KCKV 051525Z 0515/0612 09005KT P6SM SCT050
     FM060100 VRB03KT P6SM SCT150
      TEMPO 0608/0612 3SM BR=

USA.gov is the U.S. government's official web portal to all federal, state and local government web resources and services.